This is the latest recevied weather packets stored in our database for station/object OE-11140. If no packets are shown the sender has not sent any weather packets the latest 10 day(s).
| Time | Temp. | Humidity | Pressure | Rain* | Wind** | Luminosity | Snow |
|---|---|---|---|---|---|---|---|
| 1788206117 | 15.56° C | 84% | 1020.7 hPa | 0.25 mm | - | 0 W/m² | - |
| 1788205517 | 15.56° C | 83% | 1020.6 hPa | 0.25 mm | - | 0 W/m² | - |
| 1788204917 | 15.56° C | 84% | 1020.5 hPa | 0.25 mm | - | 0 W/m² | - |
| 1788204317 | 15.56° C | 84% | 1020.2 hPa | 0.25 mm | - | 0 W/m² | - |
| 1788203717 | 16.11° C | 81% | 1020.1 hPa | 0.25 mm | - | 0 W/m² | - |
| 1788203117 | 16.11° C | 82% | 1019.8 hPa | 0.25 mm | - | 0 W/m² | - |
| 1788201317 | 17.78° C | 75% | 1018.6 hPa | 0 mm | - | 0 W/m² | - |
| 1788200716 | 18.33° C | 71% | 1018.4 hPa | 0 mm | - | 0 W/m² | - |
| 1788200117 | 18.33° C | 73% | 1017.9 hPa | 0 mm | - | 0 W/m² | - |
| 1788199517 | 18.89° C | 67% | 1017.5 hPa | 0 mm | - | 0 W/m² | - |
| 1788198317 | 18.89° C | 68% | 1016.9 hPa | 0.25 mm | - | 7 W/m² | - |
| 1788197717 | 19.44° C | 60% | 1016.6 hPa | 0.25 mm | - | 7 W/m² | - |
| 1788197116 | 20.56° C | 50% | 1016.6 hPa | 0.25 mm | - | 13 W/m² | - |
| 1788196517 | 20° C | 53% | 1016.7 hPa | 0.25 mm | - | 27 W/m² | - |
| 1788195917 | 20° C | 70% | 1016.8 hPa | 0.25 mm | - | 13 W/m² | - |
| 1788195317 | 21.11° C | 58% | 1016.1 hPa | 0.25 mm | - | 7 W/m² | - |
| 1788194717 | 21.67° C | 53% | 1016.1 hPa | 0 mm | - | 0 W/m² | - |
| 1788194117 | 22.22° C | 52% | 1015.6 hPa | 0 mm | - | 0 W/m² | - |
| 1788193516 | 22.22° C | 51% | 1015.4 hPa | 0 mm | - | 0 W/m² | - |
| 1788192917 | 22.22° C | 53% | 1015 hPa | 0 mm | - | 7 W/m² | - |
| 1788192317 | 22.22° C | 55% | 1014.8 hPa | 0 mm | - | 7 W/m² | - |
| 1788191117 | 22.22° C | 60% | 1014.7 hPa | 0 mm | - | 20 W/m² | - |
| 1788189917 | 22.22° C | 62% | 1014.8 hPa | 0 mm | - | 27 W/m² | - |
| 1788189318 | 22.22° C | 60% | 1014.9 hPa | 0 mm | - | 27 W/m² | - |
| 1788188717 | 22.22° C | 60% | 1014.8 hPa | 0 mm | - | 27 W/m² | - |
* Rain latest hour (hover to see other rain measurements)
** Current wind speed in m/s (hover to see current wind gust speed)